Time;durP1;ratioP1;P1;durP2;ratioP2;P2;SDS_P1;SDS_P2;PMS_P1;PMS_P2;Temp;Humidity;BMP_temperature;BMP_pressure;BME280_temperature;BME280_humidity;BME280_pressure;Samples;Min_cycle;Max_cycle;Signal;HPM_P1;HPM_P2
2023/03/07 00:00:00;;;;;;;3.23;3.00;;;22.20;50.60;;;;;;5008962;28;20562;-67
2023/03/07 00:02:31;;;;;;;2.87;2.67;;;22.10;50.70;;;;;;5012039;28;20467;-67
2023/03/07 00:05:00;;;;;;;2.47;2.27;;;22.10;50.70;;;;;;5012674;28;20453;-67
2023/03/07 00:07:31;;;;;;;2.70;2.50;;;22.20;50.80;;;;;;5013902;28;20443;-67
2023/03/07 00:09:59;;;;;;;1.90;1.80;;;22.20;50.60;;;;;;5016742;28;20520;-67
2023/03/07 00:12:27;;;;;;;2.57;2.37;;;22.20;50.60;;;;;;5010704;28;20449;-67
2023/03/07 00:14:55;;;;;;;3.50;2.40;;;22.30;50.60;;;;;;5011635;28;20476;-67
2023/03/07 00:17:24;;;;;;;2.27;1.90;;;22.30;50.70;;;;;;5010755;28;20451;-68
2023/03/07 00:19:52;;;;;;;2.10;2.00;;;22.30;50.50;;;;;;5009931;28;21030;-68
2023/03/07 00:22:20;;;;;;;2.20;2.00;;;22.30;50.70;;;;;;5012222;28;20486;-68
2023/03/07 00:24:50;;;;;;;2.77;2.57;;;22.30;50.50;;;;;;5011612;28;20464;-67
2023/03/07 00:27:18;;;;;;;2.77;2.57;;;22.30;50.00;;;;;;5022998;28;20475;-67
2023/03/07 00:29:49;;;;;;;2.57;2.37;;;22.30;50.40;;;;;;5030765;28;20521;-68
2023/03/07 00:32:17;;;;;;;2.40;2.20;;;22.20;49.90;;;;;;5024707;28;20469;-67
2023/03/07 00:34:46;;;;;;;2.60;2.40;;;22.20;50.30;;;;;;5029766;28;20479;-67
2023/03/07 00:37:14;;;;;;;2.63;2.43;;;22.20;50.20;;;;;;5029771;28;20455;-67
2023/03/07 00:39:42;;;;;;;2.37;2.17;;;22.20;50.30;;;;;;5030675;28;20502;-67
2023/03/07 00:42:12;;;;;;;2.63;2.43;;;22.20;50.40;;;;;;5028557;28;20451;-67
2023/03/07 00:44:40;;;;;;;3.00;2.80;;;22.20;50.50;;;;;;5027827;28;20470;-67
2023/03/07 00:47:09;;;;;;;2.40;2.20;;;22.10;50.30;;;;;;5011130;28;20434;-67
2023/03/07 00:49:38;;;;;;;2.60;2.40;;;22.10;50.10;;;;;;5021436;28;20451;-67
2023/03/07 00:52:06;;;;;;;3.10;2.90;;;22.10;50.00;;;;;;5032375;28;20466;-67
2023/03/07 00:54:35;;;;;;;2.50;2.20;;;22.10;49.70;;;;;;5030564;28;21056;-67
2023/03/07 00:57:03;;;;;;;3.70;3.40;;;22.10;49.70;;;;;;5014808;28;20489;-67
2023/03/07 00:59:33;;;;;;;2.60;2.43;;;22.10;49.10;;;;;;5033983;28;20458;-67
2023/03/07 01:02:04;;;;;;;2.60;2.40;;;22.00;49.40;;;;;;5027079;28;20461;-67
2023/03/07 01:04:32;;;;;;;2.37;2.17;;;22.00;49.20;;;;;;5033610;28;20819;-67
2023/03/07 01:07:00;;;;;;;2.60;2.40;;;22.00;49.40;;;;;;5034500;28;20782;-67
2023/03/07 01:09:28;;;;;;;2.97;2.77;;;22.00;49.30;;;;;;5014622;28;20460;-67
2023/03/07 01:11:57;;;;;;;3.00;2.80;;;22.00;49.10;;;;;;5027340;28;20470;-67
2023/03/07 01:14:26;;;;;;;2.73;2.53;;;22.00;49.50;;;;;;5028785;28;20577;-67
2023/03/07 01:16:55;;;;;;;2.70;2.50;;;22.00;49.30;;;;;;5032544;28;20528;-67
2023/03/07 01:19:24;;;;;;;2.90;2.60;;;22.00;49.40;;;;;;5034805;28;20582;-67
2023/03/07 01:21:54;;;;;;;3.10;2.90;;;21.90;49.70;;;;;;5028195;28;20920;-67
2023/03/07 01:24:22;;;;;;;3.13;2.93;;;21.90;49.40;;;;;;5023682;28;20457;-67
2023/03/07 01:26:51;;;;;;;2.73;2.53;;;22.00;49.50;;;;;;5028172;28;20944;-67
2023/03/07 01:29:20;;;;;;;3.20;2.90;;;22.00;49.70;;;;;;5032939;28;21331;-67
2023/03/07 01:31:48;;;;;;;2.83;2.63;;;22.00;49.70;;;;;;5027791;28;20568;-67
2023/03/07 01:34:18;;;;;;;3.43;3.00;;;22.00;49.80;;;;;;5033490;28;20479;-66
2023/03/07 01:36:47;;;;;;;2.70;2.50;;;22.00;49.30;;;;;;5023774;28;20470;-66
2023/03/07 01:39:16;;;;;;;2.47;2.27;;;22.00;49.40;;;;;;5032489;28;20473;-67
2023/03/07 01:42:07;;;;;;;2.37;2.23;;;22.00;49.40;;;;;;5030957;28;20459;-67
2023/03/07 01:44:59;;;;;;;2.70;2.50;;;22.00;49.40;;;;;;5027846;28;20466;-67
2023/03/07 01:47:33;;;;;;;2.70;2.50;;;22.00;49.40;;;;;;5031857;28;20464;-67
2023/03/07 01:50:07;;;;;;;3.07;2.87;;;22.00;49.40;;;;;;5030555;28;20572;-67
2023/03/07 01:52:40;;;;;;;2.53;2.33;;;22.00;49.30;;;;;;5026507;28;20461;-67
2023/03/07 01:55:13;;;;;;;3.20;2.90;;;22.00;49.20;;;;;;5032114;28;20489;-67
2023/03/07 01:57:44;;;;;;;3.23;3.03;;;22.00;48.90;;;;;;5031463;28;20496;-67
2023/03/07 02:00:18;;;;;;;3.73;3.40;;;22.00;49.20;;;;;;5032535;28;20449;-67
2023/03/07 02:02:53;;;;;;;3.33;3.10;;;22.00;49.00;;;;;;5015528;28;20474;-67
2023/03/07 02:05:27;;;;;;;3.70;3.40;;;22.00;49.10;;;;;;5023266;28;21220;-67
2023/03/07 02:07:59;;;;;;;3.27;3.07;;;22.00;48.80;;;;;;5022679;28;20464;-67
2023/03/07 02:10:31;;;;;;;3.27;3.07;;;21.90;48.80;;;;;;5028010;28;21305;-67
2023/03/07 02:13:00;;;;;;;3.40;3.10;;;21.90;48.70;;;;;;5031493;28;20517;-67
2023/03/07 02:15:28;;;;;;;3.40;3.20;;;21.90;49.00;;;;;;5031695;28;20978;-67
2023/03/07 02:17:58;;;;;;;2.77;2.43;;;21.80;48.90;;;;;;5030493;28;20486;-67
2023/03/07 02:20:38;;;;;;;2.70;2.50;;;21.80;49.30;;;;;;5032004;28;20866;-67
2023/03/07 02:23:17;;;;;;;2.53;2.43;;;21.80;49.00;;;;;;5031946;28;20452;-67
2023/03/07 02:25:54;;;;;;;2.90;2.70;;;21.80;49.10;;;;;;5021670;28;20956;-67
2023/03/07 02:28:25;;;;;;;2.80;2.60;;;21.80;49.20;;;;;;5031550;28;20463;-67
2023/03/07 02:30:55;;;;;;;3.87;3.10;;;21.80;48.90;;;;;;5032069;28;20516;-67
2023/03/07 02:33:25;;;;;;;3.53;3.33;;;21.80;49.20;;;;;;5030789;28;20461;-67
2023/03/07 02:36:03;;;;;;;3.57;3.27;;;21.80;49.00;;;;;;5031722;28;20694;-67
2023/03/07 02:38:36;;;;;;;3.63;3.30;;;21.70;48.90;;;;;;5026529;28;21052;-67
2023/03/07 02:41:07;;;;;;;3.10;2.80;;;21.70;48.80;;;;;;5030233;28;20482;-67
2023/03/07 02:43:37;;;;;;;3.27;2.87;;;21.70;48.90;;;;;;5027236;28;20463;-67
2023/03/07 02:46:07;;;;;;;3.40;3.10;;;21.70;49.20;;;;;;5011772;28;20505;-67
2023/03/07 02:48:35;;;;;;;3.33;3.03;;;21.70;48.70;;;;;;5028148;28;20467;-67
2023/03/07 02:51:03;;;;;;;3.37;3.07;;;21.70;48.70;;;;;;5030465;28;20473;-67
2023/03/07 02:53:33;;;;;;;3.37;3.07;;;21.70;48.90;;;;;;5030990;28;20453;-67
2023/03/07 02:56:02;;;;;;;3.50;3.20;;;21.70;48.60;;;;;;5029239;28;20504;-67
2023/03/07 02:58:31;;;;;;;3.43;3.13;;;21.70;48.60;;;;;;5019809;28;20494;-67
2023/03/07 03:01:01;;;;;;;3.20;3.00;;;21.70;48.60;;;;;;5027171;28;20968;-67
2023/03/07 03:03:32;;;;;;;3.30;3.00;;;21.70;48.50;;;;;;5024586;28;20463;-67
2023/03/07 03:06:00;;;;;;;3.83;3.53;;;21.70;48.60;;;;;;5032549;28;21025;-67
2023/03/07 03:08:28;;;;;;;3.60;2.80;;;21.70;48.60;;;;;;5029874;28;20455;-67
2023/03/07 03:10:56;;;;;;;3.13;2.93;;;21.70;48.50;;;;;;5031889;28;20534;-67
2023/03/07 03:13:27;;;;;;;3.93;3.63;;;21.70;48.60;;;;;;5029259;28;20495;-67
2023/03/07 03:15:56;;;;;;;3.33;3.10;;;21.70;48.60;;;;;;5018163;28;20481;-66
2023/03/07 03:18:28;;;;;;;3.20;2.90;;;21.70;48.50;;;;;;5030922;28;20504;-66
2023/03/07 03:20:58;;;;;;;2.87;2.63;;;21.70;49.00;;;;;;5011106;28;20490;-66
2023/03/07 03:23:28;;;;;;;3.57;3.27;;;21.70;48.80;;;;;;5012653;28;20434;-66
2023/03/07 03:26:01;;;;;;;3.20;2.90;;;21.70;48.70;;;;;;5030364;28;20546;-66
2023/03/07 03:28:31;;;;;;;2.77;2.57;;;21.70;48.60;;;;;;5025714;28;21115;-66
2023/03/07 03:31:01;;;;;;;3.20;3.00;;;21.70;48.50;;;;;;5038564;28;20493;-66
2023/03/07 03:33:32;;;;;;;3.07;2.77;;;21.70;48.70;;;;;;5023816;28;20867;-66
2023/03/07 03:36:06;;;;;;;3.37;3.17;;;21.70;48.60;;;;;;5030466;28;20887;-66
2023/03/07 03:38:34;;;;;;;3.80;3.50;;;21.70;48.90;;;;;;5018978;28;20528;-66
2023/03/07 03:41:05;;;;;;;2.53;2.37;;;21.70;48.80;;;;;;5020658;28;20870;-65
2023/03/07 03:43:35;;;;;;;3.00;2.70;;;21.70;48.70;;;;;;5029748;28;20518;-66
2023/03/07 03:46:05;;;;;;;3.30;2.87;;;21.70;48.80;;;;;;5030048;28;20458;-66
2023/03/07 03:48:35;;;;;;;3.00;2.67;;;21.70;48.60;;;;;;5030546;28;20468;-66
2023/03/07 03:51:05;;;;;;;2.70;2.50;;;21.70;48.70;;;;;;5028457;28;20466;-66
2023/03/07 03:53:34;;;;;;;3.10;2.90;;;21.70;48.50;;;;;;5027770;28;20469;-66
2023/03/07 03:56:04;;;;;;;2.67;2.47;;;21.70;48.80;;;;;;5031320;28;20961;-65
2023/03/07 03:58:33;;;;;;;3.37;3.07;;;21.70;48.50;;;;;;5020994;28;20554;-66
2023/03/07 04:01:04;;;;;;;3.70;3.40;;;21.70;48.60;;;;;;5016832;28;20460;-66
2023/03/07 04:03:33;;;;;;;3.20;2.80;;;21.70;48.40;;;;;;5030590;28;20432;-65
2023/03/07 04:06:04;;;;;;;3.73;3.40;;;21.60;48.60;;;;;;5030150;28;20973;-66
2023/03/07 04:08:35;;;;;;;3.33;3.03;;;21.60;48.60;;;;;;5029019;28;20502;-65
2023/03/07 04:11:04;;;;;;;3.33;3.03;;;21.60;48.60;;;;;;5030892;28;20432;-66
2023/03/07 04:13:33;;;;;;;2.63;2.43;;;21.60;48.60;;;;;;5027234;28;20479;-65
2023/03/07 04:16:02;;;;;;;4.10;3.80;;;21.60;48.50;;;;;;5041067;28;20570;-66
2023/03/07 04:18:30;;;;;;;6.20;3.10;;;21.60;48.50;;;;;;5044423;28;20531;-65
2023/03/07 04:20:59;;;;;;;3.43;3.23;;;21.50;48.40;;;;;;5028313;28;20473;-66
2023/03/07 04:23:29;;;;;;;3.47;3.00;;;21.50;48.50;;;;;;5029345;28;20873;-66
2023/03/07 04:25:59;;;;;;;3.20;3.00;;;21.50;48.40;;;;;;5010380;28;20512;-66
2023/03/07 04:28:45;;;;;;;2.17;2.00;;;21.50;48.70;;;;;;5022488;28;20462;-66
2023/03/07 04:31:22;;;;;;;2.63;2.43;;;21.50;48.70;;;;;;5022131;28;20877;-65
2023/03/07 04:33:52;;;;;;;2.20;2.10;;;21.50;48.70;;;;;;5026277;28;20480;-65
2023/03/07 04:36:21;;;;;;;3.20;3.00;;;21.50;48.90;;;;;;5024370;28;20481;-66
2023/03/07 04:38:52;;;;;;;2.80;2.60;;;21.50;48.50;;;;;;5029834;28;20457;-66
2023/03/07 04:41:24;;;;;;;3.10;2.90;;;21.50;48.20;;;;;;5029436;28;20456;-66
2023/03/07 04:43:58;;;;;;;2.43;2.23;;;21.50;48.20;;;;;;5029755;28;20799;-66
2023/03/07 04:46:27;;;;;;;2.73;2.53;;;21.50;48.20;;;;;;5016304;28;20479;-66
2023/03/07 04:48:55;;;;;;;2.83;2.63;;;21.50;48.50;;;;;;5017331;28;20876;-66
2023/03/07 04:51:23;;;;;;;3.10;2.77;;;21.50;48.50;;;;;;5024365;28;20577;-66
2023/03/07 04:53:52;;;;;;;2.97;2.77;;;21.50;48.20;;;;;;5029385;28;20457;-66
2023/03/07 04:56:21;;;;;;;3.70;3.40;;;21.50;48.20;;;;;;5028404;28;20478;-66
2023/03/07 04:58:49;;;;;;;3.20;2.97;;;21.50;48.00;;;;;;5028574;28;20496;-66
2023/03/07 05:01:18;;;;;;;3.07;2.87;;;21.50;47.90;;;;;;5028537;28;21135;-66
2023/03/07 05:03:48;;;;;;;3.00;2.80;;;21.50;48.00;;;;;;5019308;28;20561;-66
2023/03/07 05:06:18;;;;;;;2.80;2.60;;;21.50;48.00;;;;;;5024585;28;20462;-66
2023/03/07 05:08:49;;;;;;;3.37;3.13;;;21.50;47.80;;;;;;5027922;28;20547;-66
2023/03/07 05:11:19;;;;;;;3.20;2.90;;;21.50;47.70;;;;;;5024448;28;20470;-66
2023/03/07 05:13:48;;;;;;;2.87;2.67;;;21.50;47.70;;;;;;5028195;28;20512;-66
2023/03/07 05:16:19;;;;;;;3.20;2.90;;;21.50;47.80;;;;;;5024342;28;20855;-66
2023/03/07 05:18:48;;;;;;;3.10;2.90;;;21.40;47.70;;;;;;5040764;28;20509;-66
2023/03/07 05:21:17;;;;;;;3.50;3.20;;;21.40;47.80;;;;;;5019018;28;20816;-66
2023/03/07 05:23:45;;;;;;;2.70;2.50;;;21.40;47.80;;;;;;5023884;28;20868;-66
2023/03/07 05:26:13;;;;;;;3.40;3.17;;;21.40;47.80;;;;;;5023912;28;20466;-66
2023/03/07 05:28:43;;;;;;;3.80;2.70;;;21.40;47.70;;;;;;5027307;28;20882;-66
2023/03/07 05:31:11;;;;;;;4.90;2.60;;;21.40;47.70;;;;;;5028417;28;20537;-66
2023/03/07 05:33:41;;;;;;;3.23;2.93;;;21.40;48.10;;;;;;5029360;28;20471;-66
2023/03/07 05:36:15;;;;;;;2.80;2.60;;;21.40;47.70;;;;;;5022405;28;20983;-66
2023/03/07 05:38:43;;;;;;;2.67;2.47;;;21.50;47.70;;;;;;5018167;28;20818;-66
2023/03/07 05:41:12;;;;;;;4.23;2.90;;;21.50;47.80;;;;;;5019286;28;20465;-66
2023/03/07 05:43:41;;;;;;;2.73;2.53;;;21.50;47.90;;;;;;5031433;28;20952;-67
2023/03/07 05:46:10;;;;;;;2.77;2.57;;;21.50;47.70;;;;;;5033366;28;20494;-66
2023/03/07 05:48:39;;;;;;;3.03;2.53;;;21.50;47.80;;;;;;5037789;28;20454;-66
2023/03/07 05:51:07;;;;;;;3.20;2.70;;;21.50;47.90;;;;;;5019114;28;20470;-67
2023/03/07 05:53:35;;;;;;;2.77;2.57;;;21.60;48.00;;;;;;5031132;28;20953;-66
2023/03/07 05:56:04;;;;;;;2.67;2.47;;;21.60;48.30;;;;;;5019901;28;20457;-66
2023/03/07 05:58:33;;;;;;;3.57;2.10;;;21.60;48.50;;;;;;5026583;28;20841;-66
2023/03/07 06:01:02;;;;;;;3.47;2.50;;;21.70;48.70;;;;;;5024642;28;20457;-65
2023/03/07 06:03:33;;;;;;;2.50;2.30;;;21.70;48.40;;;;;;5018206;28;20470;-65
2023/03/07 06:06:02;;;;;;;2.77;2.30;;;21.70;48.80;;;;;;5014545;28;20446;-65
2023/03/07 06:08:30;;;;;;;2.53;2.20;;;21.80;48.90;;;;;;5017183;28;20836;-66
2023/03/07 06:10:58;;;;;;;2.10;2.00;;;21.80;48.40;;;;;;5019025;28;20466;-66
2023/03/07 06:13:26;;;;;;;2.37;2.17;;;21.80;49.00;;;;;;5016517;28;20815;-66
2023/03/07 06:15:55;;;;;;;2.63;2.20;;;21.80;48.80;;;;;;5028132;28;21259;-66
2023/03/07 06:18:25;;;;;;;6.30;2.37;;;21.80;48.50;;;;;;5026132;28;20463;-66
2023/03/07 06:20:59;;;;;;;4.60;2.73;;;21.80;49.40;;;;;;5014987;28;20533;-66
2023/03/07 06:23:33;;;;;;;3.23;2.10;;;21.80;49.70;;;;;;5009862;28;20473;-66
2023/03/07 06:26:02;;;;;;;3.93;3.47;;;21.80;49.90;;;;;;5024884;28;20519;-66
2023/03/07 06:28:31;;;;;;;3.47;2.70;;;21.80;49.80;;;;;;5018895;28;20946;-66
2023/03/07 06:31:01;;;;;;;5.77;3.07;;;21.80;50.20;;;;;;5017541;28;20494;-66
2023/03/07 06:33:30;;;;;;;3.83;3.50;;;21.80;50.30;;;;;;5028876;28;20475;-66
2023/03/07 06:36:00;;;;;;;5.43;3.10;;;21.90;49.80;;;;;;5029473;28;20458;-66
2023/03/07 06:38:28;;;;;;;4.80;3.30;;;21.90;50.40;;;;;;5012336;28;20860;-66
2023/03/07 06:40:57;;;;;;;3.50;3.20;;;21.90;50.30;;;;;;5014753;28;20442;-66
2023/03/07 06:43:25;;;;;;;4.23;3.00;;;21.90;49.70;;;;;;5030800;28;20507;-66
2023/03/07 06:45:53;;;;;;;6.43;3.77;;;21.90;50.10;;;;;;5012013;28;20453;-66
2023/03/07 06:48:25;;;;;;;4.63;3.13;;;21.90;50.10;;;;;;5012733;28;20478;-66
2023/03/07 06:50:53;;;;;;;5.07;3.30;;;21.80;50.10;;;;;;5016076;28;20723;-65
2023/03/07 06:53:23;;;;;;;4.97;3.43;;;21.80;49.80;;;;;;5013676;28;21096;-65
2023/03/07 06:55:52;;;;;;;4.80;2.83;;;21.80;49.80;;;;;;5020282;28;20533;-65
2023/03/07 06:58:20;;;;;;;7.00;3.60;;;21.80;49.70;;;;;;5018280;28;20485;-65
2023/03/07 07:00:49;;;;;;;4.80;3.23;;;21.80;49.60;;;;;;5024800;28;20932;-65
2023/03/07 07:03:19;;;;;;;4.03;2.77;;;21.80;49.60;;;;;;5029604;28;20492;-65
2023/03/07 07:05:47;;;;;;;3.27;2.97;;;21.70;49.50;;;;;;5014908;28;20449;-65
2023/03/07 07:08:16;;;;;;;3.63;3.20;;;21.70;49.30;;;;;;5016440;28;20967;-65
2023/03/07 07:10:45;;;;;;;7.60;2.60;;;21.80;49.50;;;;;;5015356;28;20474;-65
2023/03/07 07:13:14;;;;;;;5.90;3.33;;;21.80;49.50;;;;;;5021921;28;21835;-65
2023/03/07 07:15:42;;;;;;;6.17;2.83;;;21.80;49.60;;;;;;5025918;28;20458;-65
2023/03/07 07:18:13;;;;;;;3.73;2.97;;;21.80;49.60;;;;;;5022685;28;20486;-65
2023/03/07 07:20:42;;;;;;;3.70;3.40;;;21.80;49.30;;;;;;5024185;28;20498;-65
2023/03/07 07:23:10;;;;;;;3.50;2.90;;;21.90;49.20;;;;;;5021154;28;20509;-65
2023/03/07 07:25:39;;;;;;;6.47;2.63;;;21.90;49.40;;;;;;5029565;28;20460;-65
2023/03/07 07:28:08;;;;;;;4.23;3.33;;;21.90;49.90;;;;;;5027771;28;20816;-65
2023/03/07 07:30:37;;;;;;;3.50;3.17;;;21.90;49.20;;;;;;5028524;28;20495;-65
2023/03/07 07:33:05;;;;;;;4.23;2.83;;;21.90;49.10;;;;;;5028431;28;20467;-65
2023/03/07 07:35:33;;;;;;;3.40;2.80;;;21.90;49.30;;;;;;5031104;28;20549;-65
2023/03/07 07:38:02;;;;;;;3.77;2.80;;;21.90;49.50;;;;;;5028658;28;20518;-65
2023/03/07 07:40:30;;;;;;;2.87;2.63;;;21.90;49.40;;;;;;5028641;28;20510;-65
2023/03/07 07:42:59;;;;;;;3.50;2.00;;;21.90;49.40;;;;;;5028605;28;20455;-65
2023/03/07 07:45:38;;;;;;;3.23;2.97;;;21.90;49.80;;;;;;5027720;28;20473;-65
2023/03/07 07:48:15;;;;;;;2.97;2.73;;;21.90;49.80;;;;;;5028539;28;20570;-65
2023/03/07 07:50:43;;;;;;;3.40;2.50;;;21.90;50.20;;;;;;5028858;28;20471;-65
2023/03/07 07:53:11;;;;;;;3.47;2.20;;;21.90;50.00;;;;;;5029871;28;20448;-65
2023/03/07 07:55:40;;;;;;;3.07;2.40;;;22.00;50.20;;;;;;5029136;28;20467;-65
2023/03/07 07:58:08;;;;;;;3.60;2.53;;;22.00;50.00;;;;;;5022910;28;20488;-63
2023/03/07 08:00:39;;;;;;;3.20;3.00;;;22.00;50.20;;;;;;5025405;28;20855;-64
2023/03/07 08:03:07;;;;;;;2.30;2.10;;;22.10;50.60;;;;;;5027816;28;20463;-64
2023/03/07 08:05:36;;;;;;;2.20;2.00;;;22.10;50.50;;;;;;5030459;28;20451;-64
2023/03/07 08:08:04;;;;;;;3.33;2.80;;;22.10;50.40;;;;;;5028857;28;20482;-64
2023/03/07 08:10:32;;;;;;;3.00;2.73;;;22.20;50.10;;;;;;5029217;28;20935;-64
2023/03/07 08:13:00;;;;;;;2.80;2.60;;;22.20;50.40;;;;;;5029991;28;20513;-64
2023/03/07 08:15:28;;;;;;;4.27;2.97;;;22.20;50.40;;;;;;5029913;28;20458;-64
2023/03/07 08:18:00;;;;;;;3.17;2.90;;;22.20;50.40;;;;;;5029904;28;20483;-64
2023/03/07 08:20:28;;;;;;;3.90;3.33;;;22.30;50.30;;;;;;5016651;28;20509;-64
2023/03/07 08:22:56;;;;;;;3.03;2.37;;;22.30;49.80;;;;;;5029667;28;20530;-65
2023/03/07 08:25:25;;;;;;;3.60;2.47;;;22.30;50.20;;;;;;5029815;28;20459;-64
2023/03/07 08:27:57;;;;;;;3.10;2.53;;;22.40;50.10;;;;;;5029179;28;20590;-64
2023/03/07 08:30:27;;;;;;;2.80;2.60;;;22.40;50.00;;;;;;5027156;28;20503;-65
2023/03/07 08:32:56;;;;;;;3.30;2.87;;;22.40;49.40;;;;;;5024950;28;20454;-65
2023/03/07 08:35:28;;;;;;;2.40;2.20;;;22.40;49.50;;;;;;5030144;28;20541;-65
2023/03/07 08:37:58;;;;;;;3.03;2.13;;;22.40;49.40;;;;;;5028586;28;20490;-65
2023/03/07 08:40:27;;;;;;;2.33;2.17;;;22.40;49.80;;;;;;5030187;28;20954;-64
2023/03/07 08:42:55;;;;;;;2.47;2.27;;;22.40;50.10;;;;;;5029385;28;20558;-65
2023/03/07 08:45:24;;;;;;;3.10;2.80;;;22.50;49.80;;;;;;5030007;28;20447;-63
2023/03/07 08:47:53;;;;;;;5.83;2.87;;;22.50;49.80;;;;;;5022417;28;20886;-65
2023/03/07 08:50:22;;;;;;;3.67;3.33;;;22.50;49.60;;;;;;5025468;28;20947;-74
2023/03/07 08:52:51;;;;;;;4.60;3.60;;;22.60;49.50;;;;;;5025053;28;20984;-76
2023/03/07 08:55:20;;;;;;;5.27;3.13;;;22.60;49.90;;;;;;5027748;28;21139;-76
2023/03/07 08:57:48;;;;;;;4.60;2.60;;;22.60;49.90;;;;;;5012793;28;20484;-75
2023/03/07 09:00:17;;;;;;;2.67;2.40;;;22.60;50.40;;;;;;5029631;28;20450;-74
2023/03/07 09:02:46;;;;;;;2.97;2.30;;;22.70;50.60;;;;;;5026822;28;20474;-72
2023/03/07 09:05:14;;;;;;;3.20;2.90;;;22.70;50.60;;;;;;5030512;28;20452;-77
2023/03/07 09:07:43;;;;;;;2.93;2.63;;;22.70;50.30;;;;;;5029246;28;20545;-75
2023/03/07 09:10:13;;;;;;;2.57;2.37;;;22.80;49.50;;;;;;5015706;28;20468;-75
2023/03/07 09:12:41;;;;;;;2.17;2.03;;;22.80;49.90;;;;;;5029159;28;20506;-75
2023/03/07 09:15:10;;;;;;;2.77;2.57;;;22.80;50.00;;;;;;5033501;28;21223;-75
2023/03/07 09:17:38;;;;;;;2.73;2.33;;;22.80;49.20;;;;;;5024824;28;20471;-73
2023/03/07 09:20:09;;;;;;;2.63;2.37;;;22.70;49.30;;;;;;5028764;28;20471;-73
2023/03/07 09:22:37;;;;;;;2.93;2.23;;;22.70;49.30;;;;;;5026268;28;20512;-74
2023/03/07 09:25:06;;;;;;;3.80;2.90;;;22.70;49.40;;;;;;5033873;28;20493;-74
2023/03/07 09:27:36;;;;;;;3.23;2.47;;;22.70;49.80;;;;;;5032861;28;20486;-74
2023/03/07 09:30:05;;;;;;;2.30;1.90;;;22.70;50.30;;;;;;5032995;28;20483;-72
2023/03/07 09:32:33;;;;;;;2.63;2.17;;;22.70;50.00;;;;;;5025347;28;20545;-72
2023/03/07 09:35:01;;;;;;;4.23;2.30;;;22.70;50.20;;;;;;5015599;28;21002;-74
2023/03/07 09:37:29;;;;;;;2.30;2.10;;;22.70;49.70;;;;;;5029343;28;20505;-74
2023/03/07 09:39:58;;;;;;;1.90;1.80;;;22.80;50.30;;;;;;5022240;28;20918;-77
2023/03/07 09:42:33;;;;;;;2.40;2.20;;;22.80;50.50;;;;;;5015510;28;20459;-76
2023/03/07 09:45:38;;;;;;;2.83;2.07;;;22.80;49.60;;;;;;5023475;28;20487;-73
2023/03/07 09:48:59;;;;;;;2.73;2.53;;;22.80;50.40;;;;;;5028829;28;20459;-74
2023/03/07 09:51:37;;;;;;;2.47;2.27;;;22.80;49.80;;;;;;5019594;28;20460;-74
2023/03/07 09:54:12;;;;;;;4.07;2.23;;;22.70;49.70;;;;;;5032704;28;20448;-75
2023/03/07 09:56:44;;;;;;;3.10;2.90;;;22.70;49.60;;;;;;5032158;28;20531;-75
2023/03/07 09:59:21;;;;;;;3.17;2.50;;;22.70;49.50;;;;;;5022964;28;20506;-77
2023/03/07 10:01:55;;;;;;;2.50;2.30;;;22.80;49.70;;;;;;5032540;28;20447;-78
2023/03/07 10:04:32;;;;;;;2.80;2.40;;;22.80;49.60;;;;;;5031311;28;20460;-74
2023/03/07 10:07:03;;;;;;;2.60;2.40;;;22.80;49.70;;;;;;5031996;28;20513;-74
2023/03/07 10:09:32;;;;;;;2.00;1.90;;;22.70;49.90;;;;;;5031385;28;20859;-74
2023/03/07 10:12:18;;;;;;;2.20;2.10;;;22.80;50.40;;;;;;5031401;28;20855;-74
2023/03/07 10:15:19;;;;;;;2.30;2.10;;;22.80;50.70;;;;;;5020177;28;20456;-74
2023/03/07 10:18:05;;;;;;;2.63;2.30;;;22.80;50.20;;;;;;5032788;28;20483;-75
2023/03/07 10:20:45;;;;;;;3.30;2.33;;;22.80;50.00;;;;;;5032789;28;20539;-77
2023/03/07 10:23:37;;;;;;;2.40;2.10;;;22.90;50.00;;;;;;5032066;28;20538;-77
2023/03/07 10:26:10;;;;;;;2.60;2.40;;;22.90;49.80;;;;;;5029294;28;20479;-75
2023/03/07 10:28:41;;;;;;;1.83;1.73;;;22.90;49.80;;;;;;5016939;28;21026;-77
2023/03/07 10:31:20;;;;;;;2.50;2.30;;;23.00;50.40;;;;;;5032315;28;20974;-76
2023/03/07 10:33:50;;;;;;;2.20;2.10;;;23.00;49.90;;;;;;5032546;28;20518;-74
2023/03/07 10:36:22;;;;;;;3.77;2.30;;;23.10;49.90;;;;;;5031419;28;20451;-72
2023/03/07 10:39:00;;;;;;;3.40;2.40;;;23.10;49.90;;;;;;5031686;28;20472;-72
2023/03/07 10:41:29;;;;;;;3.50;2.40;;;23.20;50.00;;;;;;5027504;28;20462;-73
2023/03/07 10:43:58;;;;;;;4.97;2.47;;;23.20;49.50;;;;;;5032694;28;20453;-73
2023/03/07 10:46:29;;;;;;;1.90;1.70;;;23.30;49.50;;;;;;5030442;28;20527;-72
2023/03/07 10:49:07;;;;;;;2.43;1.60;;;23.40;50.10;;;;;;5032222;28;20540;-72
2023/03/07 10:51:50;;;;;;;2.23;1.90;;;23.50;49.60;;;;;;5024178;28;20474;-73
2023/03/07 10:54:21;;;;;;;2.87;2.63;;;23.50;49.60;;;;;;5029616;28;20526;-73
2023/03/07 10:57:07;;;;;;;2.50;2.30;;;23.60;49.60;;;;;;5030774;28;20484;-77
2023/03/07 10:59:37;;;;;;;3.00;2.70;;;23.70;49.20;;;;;;5025432;28;20619;-77
2023/03/07 11:02:28;;;;;;;2.30;2.07;;;23.90;49.10;;;;;;5026475;28;20450;-67
2023/03/07 11:04:57;;;;;;;2.60;2.40;;;24.00;49.00;;;;;;5031775;28;20534;-65
2023/03/07 11:07:29;;;;;;;2.67;2.43;;;24.20;48.10;;;;;;5031766;28;20473;-65
2023/03/07 11:09:59;;;;;;;2.93;2.37;;;24.40;47.60;;;;;;5017814;28;20544;-64
2023/03/07 11:12:30;;;;;;;3.63;2.30;;;24.50;48.00;;;;;;5030593;28;20475;-65
2023/03/07 11:15:11;;;;;;;5.20;2.47;;;24.60;48.00;;;;;;5031715;28;20444;-65
2023/03/07 11:17:42;;;;;;;1.67;1.57;;;24.70;47.50;;;;;;5031639;28;20446;-65
2023/03/07 11:20:21;;;;;;;1.70;1.60;;;24.80;47.90;;;;;;5028307;28;20530;-65
2023/03/07 11:23:07;;;;;;;2.30;2.07;;;24.80;47.70;;;;;;5021254;28;21007;-65
2023/03/07 11:25:36;;;;;;;2.00;1.90;;;24.90;47.70;;;;;;5026340;28;21012;-65
2023/03/07 11:28:23;;;;;;;1.80;1.60;;;25.10;47.60;;;;;;5028242;28;20452;-65
2023/03/07 11:30:53;;;;;;;1.97;1.80;;;25.20;47.20;;;;;;5015069;28;20520;-66
2023/03/07 11:33:27;;;;;;;3.23;2.50;;;25.40;46.90;;;;;;5031166;28;20447;-66
2023/03/07 11:36:02;;;;;;;2.50;2.30;;;25.50;46.60;;;;;;5030757;28;20508;-66
2023/03/07 11:38:41;;;;;;;2.57;2.40;;;25.60;46.60;;;;;;5019441;28;20456;-65
2023/03/07 11:41:15;;;;;;;2.70;2.27;;;25.50;46.60;;;;;;5030141;28;21352;-65
2023/03/07 11:43:58;;;;;;;2.87;2.67;;;25.50;46.70;;;;;;5019537;28;20445;-65
2023/03/07 11:46:38;;;;;;;1.70;1.60;;;25.60;46.70;;;;;;5030638;28;20514;-65
2023/03/07 11:49:22;;;;;;;2.13;2.03;;;25.60;46.60;;;;;;5028161;28;20464;-65
2023/03/07 11:52:04;;;;;;;1.90;1.80;;;25.70;46.50;;;;;;5029598;28;20529;-65
2023/03/07 11:54:38;;;;;;;2.30;2.10;;;25.80;46.40;;;;;;5027324;28;20506;-66
2023/03/07 11:57:16;;;;;;;2.27;2.07;;;25.80;46.40;;;;;;5010949;28;20482;-65
2023/03/07 12:00:02;;;;;;;3.43;3.23;;;25.90;46.20;;;;;;5027652;28;20477;-65
2023/03/07 12:03:12;;;;;;;2.60;2.40;;;25.90;46.30;;;;;;5029424;28;20465;-65
2023/03/07 12:06:04;;;;;;;2.00;1.90;;;25.90;46.00;;;;;;5018337;28;20531;-65
2023/03/07 12:08:45;;;;;;;4.00;2.25;;;25.90;46.30;;;;;;5018585;28;20468;-65
2023/03/07 12:11:33;;;;;;;3.10;2.10;;;25.90;46.30;;;;;;5022565;28;20201;-65
2023/03/07 12:14:13;;;;;;;2.23;2.07;;;25.90;46.10;;;;;;5018918;28;20448;-65
2023/03/07 12:16:50;;;;;;;5.23;2.70;;;25.90;46.30;;;;;;5012495;28;21277;-65
2023/03/07 12:19:47;;;;;;;2.80;2.60;;;26.00;46.30;;;;;;5012910;28;20458;-65
2023/03/07 12:22:27;;;;;;;2.00;1.90;;;25.90;46.10;;;;;;5007427;28;20498;-65
2023/03/07 12:25:08;;;;;;;1.70;1.60;;;25.90;46.30;;;;;;5010505;28;20550;-65
2023/03/07 12:27:41;;;;;;;1.70;1.60;;;25.90;46.40;;;;;;5017011;28;20464;-65
2023/03/07 12:30:16;;;;;;;2.00;1.90;;;25.80;46.50;;;;;;5011645;28;20483;-73
2023/03/07 12:32:45;;;;;;;3.10;1.60;;;25.70;46.40;;;;;;5015948;28;20457;-73
2023/03/07 12:35:22;;;;;;;1.90;1.80;;;25.70;46.60;;;;;;5009553;28;20490;-71
2023/03/07 12:37:56;;;;;;;1.93;1.80;;;25.70;46.70;;;;;;5014842;28;20455;-73
2023/03/07 12:40:28;;;;;;;1.67;1.57;;;25.60;46.90;;;;;;5021074;28;20549;-73
2023/03/07 12:43:05;;;;;;;2.10;2.00;;;25.50;46.90;;;;;;5016332;28;20494;-65
2023/03/07 12:45:43;;;;;;;3.47;2.70;;;25.40;47.00;;;;;;5021209;28;20520;-65
2023/03/07 12:48:20;;;;;;;1.97;1.77;;;25.30;46.70;;;;;;5019544;28;20463;-65
2023/03/07 12:50:56;;;;;;;2.50;1.63;;;25.20;47.20;;;;;;5024216;28;20488;-64
2023/03/07 12:53:33;;;;;;;2.43;1.97;;;25.00;47.30;;;;;;5032131;28;20545;-65
2023/03/07 12:56:06;;;;;;;1.70;1.60;;;24.90;47.50;;;;;;5028045;28;20452;-65
2023/03/07 12:58:42;;;;;;;1.87;1.77;;;24.80;47.50;;;;;;5024025;28;20835;-65
2023/03/07 13:01:14;;;;;;;1.90;1.80;;;24.70;47.70;;;;;;5028658;28;21003;-65
2023/03/07 13:03:50;;;;;;;1.90;1.80;;;24.60;47.70;;;;;;5020637;28;21290;-65
2023/03/07 13:06:21;;;;;;;2.43;1.97;;;24.50;47.90;;;;;;5022287;28;20455;-65
2023/03/07 13:08:51;;;;;;;2.07;1.87;;;24.50;48.00;;;;;;5024045;28;20492;-65
2023/03/07 13:11:21;;;;;;;1.63;1.53;;;24.50;47.90;;;;;;5019108;28;20467;-65